sensor_id;sensor_type;location;lat;lon;timestamp;P1;durP1;ratioP1;P2;durP2;ratioP2
12171;SDS011;6149;52.418;13.668;2022-08-19T00:00:35;14.83;;;13.63;;
12171;SDS011;6149;52.418;13.668;2022-08-19T00:03:01;16.30;;;14.90;;
12171;SDS011;6149;52.418;13.668;2022-08-19T00:05:28;17.20;;;15.67;;
12171;SDS011;6149;52.418;13.668;2022-08-19T00:07:55;15.63;;;14.27;;
12171;SDS011;6149;52.418;13.668;2022-08-19T00:10:22;16.13;;;14.80;;
12171;SDS011;6149;52.418;13.668;2022-08-19T00:12:49;16.17;;;14.53;;
12171;SDS011;6149;52.418;13.668;2022-08-19T00:15:18;17.17;;;15.57;;
12171;SDS011;6149;52.418;13.668;2022-08-19T00:17:47;16.20;;;14.70;;
12171;SDS011;6149;52.418;13.668;2022-08-19T00:20:15;16.73;;;15.33;;
12171;SDS011;6149;52.418;13.668;2022-08-19T00:22:45;18.40;;;16.67;;
12171;SDS011;6149;52.418;13.668;2022-08-19T00:25:12;17.80;;;16.07;;
12171;SDS011;6149;52.418;13.668;2022-08-19T00:27:40;18.50;;;16.80;;
12171;SDS011;6149;52.418;13.668;2022-08-19T00:30:08;17.47;;;16.07;;
12171;SDS011;6149;52.418;13.668;2022-08-19T00:32:38;18.63;;;16.73;;
12171;SDS011;6149;52.418;13.668;2022-08-19T00:35:06;17.47;;;16.07;;
12171;SDS011;6149;52.418;13.668;2022-08-19T00:37:34;17.87;;;16.37;;
12171;SDS011;6149;52.418;13.668;2022-08-19T00:40:03;20.27;;;18.40;;
12171;SDS011;6149;52.418;13.668;2022-08-19T00:42:31;17.23;;;15.63;;
12171;SDS011;6149;52.418;13.668;2022-08-19T00:44:58;18.80;;;17.30;;
12171;SDS011;6149;52.418;13.668;2022-08-19T00:47:25;18.73;;;17.13;;
12171;SDS011;6149;52.418;13.668;2022-08-19T00:49:56;18.13;;;16.53;;
12171;SDS011;6149;52.418;13.668;2022-08-19T00:52:26;18.33;;;16.70;;
12171;SDS011;6149;52.418;13.668;2022-08-19T00:54:57;18.63;;;17.00;;
12171;SDS011;6149;52.418;13.668;2022-08-19T00:57:27;18.23;;;16.40;;
12171;SDS011;6149;52.418;13.668;2022-08-19T00:59:59;20.60;;;18.53;;
12171;SDS011;6149;52.418;13.668;2022-08-19T01:02:31;34.07;;;22.77;;
12171;SDS011;6149;52.418;13.668;2022-08-19T01:05:02;24.10;;;20.73;;
12171;SDS011;6149;52.418;13.668;2022-08-19T01:07:33;34.50;;;23.17;;
12171;SDS011;6149;52.418;13.668;2022-08-19T01:10:02;25.63;;;22.70;;
12171;SDS011;6149;52.418;13.668;2022-08-19T01:12:31;29.20;;;23.97;;
12171;SDS011;6149;52.418;13.668;2022-08-19T01:14:58;25.60;;;22.87;;
12171;SDS011;6149;52.418;13.668;2022-08-19T01:17:25;24.53;;;21.83;;
12171;SDS011;6149;52.418;13.668;2022-08-19T01:19:53;23.07;;;20.70;;
12171;SDS011;6149;52.418;13.668;2022-08-19T01:22:25;25.13;;;22.43;;
12171;SDS011;6149;52.418;13.668;2022-08-19T01:24:56;24.80;;;22.40;;
12171;SDS011;6149;52.418;13.668;2022-08-19T01:27:23;21.27;;;19.37;;
12171;SDS011;6149;52.418;13.668;2022-08-19T01:29:50;22.47;;;20.40;;
12171;SDS011;6149;52.418;13.668;2022-08-19T01:32:17;22.17;;;20.17;;
12171;SDS011;6149;52.418;13.668;2022-08-19T01:34:45;21.07;;;18.97;;
12171;SDS011;6149;52.418;13.668;2022-08-19T01:37:12;20.87;;;18.77;;
12171;SDS011;6149;52.418;13.668;2022-08-19T01:39:41;18.60;;;16.90;;
12171;SDS011;6149;52.418;13.668;2022-08-19T01:42:09;19.37;;;17.57;;
12171;SDS011;6149;52.418;13.668;2022-08-19T01:44:37;19.80;;;17.80;;
12171;SDS011;6149;52.418;13.668;2022-08-19T01:47:05;18.13;;;16.57;;
12171;SDS011;6149;52.418;13.668;2022-08-19T01:49:34;16.47;;;15.07;;
12171;SDS011;6149;52.418;13.668;2022-08-19T01:52:03;17.30;;;15.90;;
12171;SDS011;6149;52.418;13.668;2022-08-19T01:54:31;16.20;;;14.80;;
12171;SDS011;6149;52.418;13.668;2022-08-19T01:57:01;16.50;;;15.00;;
12171;SDS011;6149;52.418;13.668;2022-08-19T01:59:31;17.07;;;15.37;;
12171;SDS011;6149;52.418;13.668;2022-08-19T02:02:01;16.80;;;15.30;;
12171;SDS011;6149;52.418;13.668;2022-08-19T02:04:32;16.63;;;14.97;;
12171;SDS011;6149;52.418;13.668;2022-08-19T02:06:58;16.60;;;15.10;;
12171;SDS011;6149;52.418;13.668;2022-08-19T02:09:25;16.73;;;15.33;;
12171;SDS011;6149;52.418;13.668;2022-08-19T02:11:52;16.53;;;15.00;;
12171;SDS011;6149;52.418;13.668;2022-08-19T02:14:20;15.60;;;13.87;;
12171;SDS011;6149;52.418;13.668;2022-08-19T02:16:47;15.47;;;14.07;;
12171;SDS011;6149;52.418;13.668;2022-08-19T02:19:14;15.23;;;13.83;;
12171;SDS011;6149;52.418;13.668;2022-08-19T02:21:41;16.03;;;14.57;;
12171;SDS011;6149;52.418;13.668;2022-08-19T02:24:08;15.90;;;14.30;;
12171;SDS011;6149;52.418;13.668;2022-08-19T02:26:36;16.73;;;14.90;;
12171;SDS011;6149;52.418;13.668;2022-08-19T02:29:03;17.03;;;15.50;;
12171;SDS011;6149;52.418;13.668;2022-08-19T02:31:32;17.00;;;15.30;;
12171;SDS011;6149;52.418;13.668;2022-08-19T02:33:59;17.10;;;15.60;;
12171;SDS011;6149;52.418;13.668;2022-08-19T02:36:26;17.37;;;15.73;;
12171;SDS011;6149;52.418;13.668;2022-08-19T02:38:53;18.37;;;16.60;;
12171;SDS011;6149;52.418;13.668;2022-08-19T02:41:21;18.33;;;16.67;;
12171;SDS011;6149;52.418;13.668;2022-08-19T02:43:52;19.10;;;17.10;;
12171;SDS011;6149;52.418;13.668;2022-08-19T02:46:21;20.50;;;18.60;;
12171;SDS011;6149;52.418;13.668;2022-08-19T02:48:54;20.03;;;18.20;;
12171;SDS011;6149;52.418;13.668;2022-08-19T02:51:24;18.67;;;16.77;;
12171;SDS011;6149;52.418;13.668;2022-08-19T02:53:56;18.77;;;16.97;;
12171;SDS011;6149;52.418;13.668;2022-08-19T02:56:23;18.77;;;17.07;;
12171;SDS011;6149;52.418;13.668;2022-08-19T02:58:52;19.30;;;17.57;;
12171;SDS011;6149;52.418;13.668;2022-08-19T03:01:21;19.17;;;17.47;;
12171;SDS011;6149;52.418;13.668;2022-08-19T03:03:53;19.50;;;17.63;;
12171;SDS011;6149;52.418;13.668;2022-08-19T03:06:20;19.47;;;17.80;;
12171;SDS011;6149;52.418;13.668;2022-08-19T03:08:50;21.83;;;19.70;;
12171;SDS011;6149;52.418;13.668;2022-08-19T03:11:18;22.93;;;20.73;;
12171;SDS011;6149;52.418;13.668;2022-08-19T03:13:48;21.30;;;19.13;;
12171;SDS011;6149;52.418;13.668;2022-08-19T03:16:16;22.43;;;20.37;;
12171;SDS011;6149;52.418;13.668;2022-08-19T03:18:45;22.07;;;20.17;;
12171;SDS011;6149;52.418;13.668;2022-08-19T03:21:15;24.10;;;21.90;;
12171;SDS011;6149;52.418;13.668;2022-08-19T03:23:43;22.70;;;20.63;;
12171;SDS011;6149;52.418;13.668;2022-08-19T03:26:10;20.83;;;18.87;;
12171;SDS011;6149;52.418;13.668;2022-08-19T03:28:37;22.30;;;20.23;;
12171;SDS011;6149;52.418;13.668;2022-08-19T03:31:06;22.93;;;20.73;;
12171;SDS011;6149;52.418;13.668;2022-08-19T03:33:37;23.20;;;21.13;;
12171;SDS011;6149;52.418;13.668;2022-08-19T03:36:06;23.47;;;21.33;;
12171;SDS011;6149;52.418;13.668;2022-08-19T03:38:38;23.20;;;21.07;;
12171;SDS011;6149;52.418;13.668;2022-08-19T03:41:13;23.80;;;21.60;;
12171;SDS011;6149;52.418;13.668;2022-08-19T03:43:43;23.33;;;21.43;;
12171;SDS011;6149;52.418;13.668;2022-08-19T03:46:13;23.63;;;21.57;;
12171;SDS011;6149;52.418;13.668;2022-08-19T03:48:43;23.03;;;21.00;;
12171;SDS011;6149;52.418;13.668;2022-08-19T03:51:15;22.83;;;20.83;;
12171;SDS011;6149;52.418;13.668;2022-08-19T03:53:46;22.37;;;20.27;;
12171;SDS011;6149;52.418;13.668;2022-08-19T03:56:13;22.33;;;20.33;;
12171;SDS011;6149;52.418;13.668;2022-08-19T03:58:41;23.77;;;21.57;;
12171;SDS011;6149;52.418;13.668;2022-08-19T04:01:11;23.43;;;21.23;;
12171;SDS011;6149;52.418;13.668;2022-08-19T04:03:43;22.90;;;20.83;;
12171;SDS011;6149;52.418;13.668;2022-08-19T04:06:11;23.13;;;21.00;;
12171;SDS011;6149;52.418;13.668;2022-08-19T04:08:42;22.27;;;20.17;;
12171;SDS011;6149;52.418;13.668;2022-08-19T04:11:13;21.40;;;19.50;;
12171;SDS011;6149;52.418;13.668;2022-08-19T04:13:41;23.23;;;21.23;;
12171;SDS011;6149;52.418;13.668;2022-08-19T04:16:11;21.70;;;19.67;;
12171;SDS011;6149;52.418;13.668;2022-08-19T04:18:39;22.20;;;20.03;;
12171;SDS011;6149;52.418;13.668;2022-08-19T04:21:08;22.13;;;20.13;;
12171;SDS011;6149;52.418;13.668;2022-08-19T04:23:46;22.47;;;20.30;;
12171;SDS011;6149;52.418;13.668;2022-08-19T04:26:14;22.33;;;20.23;;
12171;SDS011;6149;52.418;13.668;2022-08-19T04:28:43;20.90;;;19.07;;
12171;SDS011;6149;52.418;13.668;2022-08-19T04:31:12;21.13;;;19.23;;
12171;SDS011;6149;52.418;13.668;2022-08-19T04:33:41;21.93;;;19.83;;
12171;SDS011;6149;52.418;13.668;2022-08-19T04:36:15;21.57;;;19.67;;
12171;SDS011;6149;52.418;13.668;2022-08-19T04:38:46;21.23;;;19.43;;
12171;SDS011;6149;52.418;13.668;2022-08-19T04:41:15;21.40;;;19.60;;
12171;SDS011;6149;52.418;13.668;2022-08-19T04:44:00;20.63;;;18.83;;
12171;SDS011;6149;52.418;13.668;2022-08-19T04:46:27;20.03;;;18.27;;
12171;SDS011;6149;52.418;13.668;2022-08-19T04:48:57;22.13;;;20.23;;
12171;SDS011;6149;52.418;13.668;2022-08-19T04:51:24;21.80;;;19.53;;
12171;SDS011;6149;52.418;13.668;2022-08-19T04:53:53;21.10;;;19.30;;
12171;SDS011;6149;52.418;13.668;2022-08-19T04:56:20;19.90;;;18.10;;
12171;SDS011;6149;52.418;13.668;2022-08-19T04:58:48;22.37;;;20.33;;
12171;SDS011;6149;52.418;13.668;2022-08-19T05:01:17;21.80;;;19.53;;
12171;SDS011;6149;52.418;13.668;2022-08-19T05:03:46;20.67;;;18.77;;
12171;SDS011;6149;52.418;13.668;2022-08-19T05:06:13;20.90;;;19.10;;
12171;SDS011;6149;52.418;13.668;2022-08-19T05:08:43;21.63;;;19.63;;
12171;SDS011;6149;52.418;13.668;2022-08-19T05:11:13;19.43;;;17.60;;
12171;SDS011;6149;52.418;13.668;2022-08-19T05:13:43;19.97;;;18.07;;
12171;SDS011;6149;52.418;13.668;2022-08-19T05:16:11;21.60;;;19.70;;
12171;SDS011;6149;52.418;13.668;2022-08-19T05:18:39;20.27;;;18.37;;
12171;SDS011;6149;52.418;13.668;2022-08-19T05:21:24;20.90;;;19.10;;
12171;SDS011;6149;52.418;13.668;2022-08-19T05:24:10;20.23;;;18.37;;
12171;SDS011;6149;52.418;13.668;2022-08-19T05:26:41;21.40;;;19.50;;
12171;SDS011;6149;52.418;13.668;2022-08-19T05:29:12;20.67;;;18.77;;
12171;SDS011;6149;52.418;13.668;2022-08-19T05:31:41;21.97;;;19.87;;
12171;SDS011;6149;52.418;13.668;2022-08-19T05:34:08;20.00;;;18.20;;
12171;SDS011;6149;52.418;13.668;2022-08-19T05:36:37;19.70;;;18.00;;
12171;SDS011;6149;52.418;13.668;2022-08-19T05:39:06;20.93;;;18.93;;
12171;SDS011;6149;52.418;13.668;2022-08-19T05:41:35;20.70;;;18.90;;
12171;SDS011;6149;52.418;13.668;2022-08-19T05:44:04;23.80;;;21.70;;
12171;SDS011;6149;52.418;13.668;2022-08-19T05:46:34;22.00;;;20.10;;
12171;SDS011;6149;52.418;13.668;2022-08-19T05:49:02;22.43;;;20.53;;
12171;SDS011;6149;52.418;13.668;2022-08-19T05:51:29;22.40;;;20.10;;
12171;SDS011;6149;52.418;13.668;2022-08-19T05:53:56;22.27;;;20.27;;
12171;SDS011;6149;52.418;13.668;2022-08-19T05:56:23;22.90;;;20.80;;
12171;SDS011;6149;52.418;13.668;2022-08-19T05:58:49;21.30;;;19.43;;
12171;SDS011;6149;52.418;13.668;2022-08-19T06:01:18;21.20;;;19.30;;
12171;SDS011;6149;52.418;13.668;2022-08-19T06:03:45;22.17;;;20.37;;
12171;SDS011;6149;52.418;13.668;2022-08-19T06:06:13;23.10;;;21.10;;
12171;SDS011;6149;52.418;13.668;2022-08-19T06:08:41;22.23;;;20.30;;
12171;SDS011;6149;52.418;13.668;2022-08-19T06:11:15;23.80;;;21.60;;
12171;SDS011;6149;52.418;13.668;2022-08-19T06:13:45;24.13;;;21.97;;
12171;SDS011;6149;52.418;13.668;2022-08-19T06:16:15;24.23;;;22.23;;
12171;SDS011;6149;52.418;13.668;2022-08-19T06:18:47;23.10;;;21.00;;
12171;SDS011;6149;52.418;13.668;2022-08-19T06:21:16;23.57;;;21.53;;
12171;SDS011;6149;52.418;13.668;2022-08-19T06:23:49;24.93;;;22.77;;
12171;SDS011;6149;52.418;13.668;2022-08-19T06:26:26;24.43;;;22.23;;
12171;SDS011;6149;52.418;13.668;2022-08-19T06:28:54;24.37;;;22.23;;
12171;SDS011;6149;52.418;13.668;2022-08-19T06:31:23;26.87;;;24.37;;
12171;SDS011;6149;52.418;13.668;2022-08-19T06:33:53;26.90;;;24.53;;
12171;SDS011;6149;52.418;13.668;2022-08-19T06:36:21;26.53;;;24.10;;
12171;SDS011;6149;52.418;13.668;2022-08-19T06:38:52;25.60;;;23.27;;
12171;SDS011;6149;52.418;13.668;2022-08-19T06:41:19;27.50;;;25.00;;
12171;SDS011;6149;52.418;13.668;2022-08-19T06:43:45;25.27;;;23.17;;
12171;SDS011;6149;52.418;13.668;2022-08-19T06:46:14;27.57;;;24.87;;
12171;SDS011;6149;52.418;13.668;2022-08-19T06:48:45;25.87;;;23.60;;
12171;SDS011;6149;52.418;13.668;2022-08-19T06:51:12;24.77;;;22.60;;
12171;SDS011;6149;52.418;13.668;2022-08-19T06:53:43;26.13;;;23.87;;
12171;SDS011;6149;52.418;13.668;2022-08-19T06:56:11;27.20;;;24.70;;
12171;SDS011;6149;52.418;13.668;2022-08-19T06:58:38;27.50;;;25.10;;
12171;SDS011;6149;52.418;13.668;2022-08-19T07:01:06;25.23;;;23.03;;
12171;SDS011;6149;52.418;13.668;2022-08-19T07:03:33;26.00;;;23.73;;
12171;SDS011;6149;52.418;13.668;2022-08-19T07:06:04;28.60;;;25.83;;
12171;SDS011;6149;52.418;13.668;2022-08-19T07:08:33;26.67;;;24.17;;
12171;SDS011;6149;52.418;13.668;2022-08-19T07:11:01;28.17;;;25.50;;
12171;SDS011;6149;52.418;13.668;2022-08-19T07:13:28;27.03;;;24.50;;
12171;SDS011;6149;52.418;13.668;2022-08-19T07:16:02;27.73;;;25.07;;
12171;SDS011;6149;52.418;13.668;2022-08-19T07:18:30;26.13;;;23.93;;
12171;SDS011;6149;52.418;13.668;2022-08-19T07:21:02;27.93;;;25.40;;
12171;SDS011;6149;52.418;13.668;2022-08-19T07:23:32;25.63;;;23.47;;
12171;SDS011;6149;52.418;13.668;2022-08-19T07:26:04;26.13;;;23.93;;
12171;SDS011;6149;52.418;13.668;2022-08-19T07:28:32;27.60;;;24.87;;
12171;SDS011;6149;52.418;13.668;2022-08-19T07:30:59;27.07;;;24.77;;
12171;SDS011;6149;52.418;13.668;2022-08-19T07:33:27;28.60;;;26.13;;
12171;SDS011;6149;52.418;13.668;2022-08-19T07:35:57;23.77;;;21.63;;
12171;SDS011;6149;52.418;13.668;2022-08-19T07:38:25;28.10;;;25.50;;
12171;SDS011;6149;52.418;13.668;2022-08-19T07:40:52;26.07;;;23.87;;
12171;SDS011;6149;52.418;13.668;2022-08-19T07:43:20;27.13;;;24.73;;
12171;SDS011;6149;52.418;13.668;2022-08-19T07:45:50;27.87;;;25.40;;
12171;SDS011;6149;52.418;13.668;2022-08-19T07:48:21;26.10;;;23.90;;
12171;SDS011;6149;52.418;13.668;2022-08-19T07:50:49;27.57;;;24.97;;
12171;SDS011;6149;52.418;13.668;2022-08-19T07:53:17;25.47;;;23.27;;
12171;SDS011;6149;52.418;13.668;2022-08-19T07:55:45;26.47;;;24.07;;
12171;SDS011;6149;52.418;13.668;2022-08-19T07:58:13;25.67;;;23.33;;
12171;SDS011;6149;52.418;13.668;2022-08-19T08:00:44;27.17;;;24.87;;
12171;SDS011;6149;52.418;13.668;2022-08-19T08:03:13;27.83;;;25.37;;
12171;SDS011;6149;52.418;13.668;2022-08-19T08:05:41;27.80;;;25.37;;
12171;SDS011;6149;52.418;13.668;2022-08-19T08:08:25;26.67;;;24.37;;
12171;SDS011;6149;52.418;13.668;2022-08-19T08:11:11;26.43;;;24.23;;
12171;SDS011;6149;52.418;13.668;2022-08-19T08:13:40;26.90;;;24.53;;
12171;SDS011;6149;52.418;13.668;2022-08-19T08:16:07;25.60;;;23.30;;
12171;SDS011;6149;52.418;13.668;2022-08-19T08:18:33;26.37;;;24.17;;
12171;SDS011;6149;52.418;13.668;2022-08-19T08:21:06;26.20;;;23.90;;
12171;SDS011;6149;52.418;13.668;2022-08-19T08:23:33;24.77;;;22.77;;
12171;SDS011;6149;52.418;13.668;2022-08-19T08:26:00;26.23;;;24.13;;
12171;SDS011;6149;52.418;13.668;2022-08-19T08:28:30;27.20;;;24.70;;
12171;SDS011;6149;52.418;13.668;2022-08-19T08:30:57;24.00;;;22.10;;
12171;SDS011;6149;52.418;13.668;2022-08-19T08:33:25;26.17;;;23.87;;
12171;SDS011;6149;52.418;13.668;2022-08-19T08:35:54;26.63;;;24.13;;
12171;SDS011;6149;52.418;13.668;2022-08-19T08:38:21;25.90;;;23.43;;
12171;SDS011;6149;52.418;13.668;2022-08-19T08:40:49;25.47;;;23.07;;
12171;SDS011;6149;52.418;13.668;2022-08-19T08:43:22;25.97;;;23.60;;
12171;SDS011;6149;52.418;13.668;2022-08-19T08:45:56;23.90;;;21.87;;
12171;SDS011;6149;52.418;13.668;2022-08-19T08:48:35;24.50;;;22.27;;
12171;SDS011;6149;52.418;13.668;2022-08-19T08:51:05;22.53;;;20.63;;
12171;SDS011;6149;52.418;13.668;2022-08-19T08:53:40;24.07;;;22.13;;
12171;SDS011;6149;52.418;13.668;2022-08-19T08:56:08;24.67;;;22.57;;
12171;SDS011;6149;52.418;13.668;2022-08-19T08:58:41;23.60;;;21.47;;
12171;SDS011;6149;52.418;13.668;2022-08-19T09:01:16;24.83;;;22.67;;
12171;SDS011;6149;52.418;13.668;2022-08-19T09:03:44;25.67;;;23.30;;
12171;SDS011;6149;52.418;13.668;2022-08-19T09:06:12;24.80;;;22.70;;
12171;SDS011;6149;52.418;13.668;2022-08-19T09:08:48;26.17;;;23.97;;
12171;SDS011;6149;52.418;13.668;2022-08-19T09:11:30;25.07;;;22.97;;
12171;SDS011;6149;52.418;13.668;2022-08-19T09:14:13;25.87;;;23.30;;
12171;SDS011;6149;52.418;13.668;2022-08-19T09:16:59;22.27;;;20.27;;
12171;SDS011;6149;52.418;13.668;2022-08-19T09:19:28;23.77;;;21.37;;
12171;SDS011;6149;52.418;13.668;2022-08-19T09:21:55;24.83;;;22.57;;
12171;SDS011;6149;52.418;13.668;2022-08-19T09:24:22;23.50;;;21.60;;
12171;SDS011;6149;52.418;13.668;2022-08-19T09:26:48;23.17;;;21.17;;
12171;SDS011;6149;52.418;13.668;2022-08-19T09:29:15;22.40;;;20.40;;
12171;SDS011;6149;52.418;13.668;2022-08-19T09:31:41;21.33;;;19.53;;
12171;SDS011;6149;52.418;13.668;2022-08-19T09:34:09;22.83;;;20.63;;
12171;SDS011;6149;52.418;13.668;2022-08-19T09:36:36;21.37;;;19.47;;
12171;SDS011;6149;52.418;13.668;2022-08-19T09:39:04;22.13;;;20.13;;
12171;SDS011;6149;52.418;13.668;2022-08-19T09:41:32;22.57;;;20.67;;
12171;SDS011;6149;52.418;13.668;2022-08-19T09:43:59;21.27;;;19.47;;
12171;SDS011;6149;52.418;13.668;2022-08-19T09:46:26;20.17;;;18.57;;
12171;SDS011;6149;52.418;13.668;2022-08-19T09:48:59;22.63;;;20.73;;
12171;SDS011;6149;52.418;13.668;2022-08-19T09:51:27;21.37;;;19.57;;
12171;SDS011;6149;52.418;13.668;2022-08-19T09:53:58;20.50;;;18.87;;
12171;SDS011;6149;52.418;13.668;2022-08-19T09:56:26;20.60;;;18.80;;
12171;SDS011;6149;52.418;13.668;2022-08-19T09:58:54;20.67;;;18.87;;
12171;SDS011;6149;52.418;13.668;2022-08-19T10:01:21;19.57;;;17.90;;
12171;SDS011;6149;52.418;13.668;2022-08-19T10:03:51;19.90;;;18.20;;
12171;SDS011;6149;52.418;13.668;2022-08-19T10:06:20;19.67;;;17.87;;
12171;SDS011;6149;52.418;13.668;2022-08-19T10:08:51;21.70;;;19.67;;
12171;SDS011;6149;52.418;13.668;2022-08-19T10:11:18;19.73;;;18.03;;
12171;SDS011;6149;52.418;13.668;2022-08-19T10:13:46;20.07;;;18.27;;
12171;SDS011;6149;52.418;13.668;2022-08-19T10:16:15;21.07;;;19.30;;
12171;SDS011;6149;52.418;13.668;2022-08-19T10:18:47;19.90;;;18.20;;
12171;SDS011;6149;52.418;13.668;2022-08-19T10:21:15;19.90;;;18.30;;
12171;SDS011;6149;52.418;13.668;2022-08-19T10:23:45;20.47;;;18.67;;
12171;SDS011;6149;52.418;13.668;2022-08-19T10:26:22;21.90;;;19.93;;
12171;SDS011;6149;52.418;13.668;2022-08-19T10:28:53;21.93;;;19.83;;
12171;SDS011;6149;52.418;13.668;2022-08-19T10:31:22;24.17;;;22.10;;
12171;SDS011;6149;52.418;13.668;2022-08-19T10:33:51;24.30;;;22.20;;
12171;SDS011;6149;52.418;13.668;2022-08-19T10:36:22;23.53;;;21.47;;
12171;SDS011;6149;52.418;13.668;2022-08-19T10:38:53;26.20;;;23.80;;
12171;SDS011;6149;52.418;13.668;2022-08-19T10:41:24;23.70;;;21.67;;
12171;SDS011;6149;52.418;13.668;2022-08-19T10:43:53;25.27;;;23.20;;
12171;SDS011;6149;52.418;13.668;2022-08-19T10:46:23;26.53;;;24.23;;
12171;SDS011;6149;52.418;13.668;2022-08-19T10:48:53;26.63;;;24.33;;
12171;SDS011;6149;52.418;13.668;2022-08-19T10:51:20;25.60;;;23.47;;
12171;SDS011;6149;52.418;13.668;2022-08-19T10:54:06;24.23;;;22.13;;
12171;SDS011;6149;52.418;13.668;2022-08-19T10:56:33;25.10;;;23.10;;
12171;SDS011;6149;52.418;13.668;2022-08-19T10:59:18;24.43;;;22.47;;
12171;SDS011;6149;52.418;13.668;2022-08-19T11:01:51;26.17;;;24.07;;
12171;SDS011;6149;52.418;13.668;2022-08-19T11:04:18;25.93;;;23.73;;
12171;SDS011;6149;52.418;13.668;2022-08-19T11:06:48;26.27;;;23.90;;
12171;SDS011;6149;52.418;13.668;2022-08-19T11:09:17;24.10;;;22.07;;
12171;SDS011;6149;52.418;13.668;2022-08-19T11:11:46;25.10;;;22.87;;
12171;SDS011;6149;52.418;13.668;2022-08-19T11:14:13;25.07;;;23.00;;
12171;SDS011;6149;52.418;13.668;2022-08-19T11:16:44;23.63;;;21.83;;
12171;SDS011;6149;52.418;13.668;2022-08-19T11:19:11;25.10;;;22.87;;
12171;SDS011;6149;52.418;13.668;2022-08-19T11:21:42;24.43;;;22.43;;
12171;SDS011;6149;52.418;13.668;2022-08-19T11:24:11;25.77;;;23.47;;
12171;SDS011;6149;52.418;13.668;2022-08-19T11:26:43;25.97;;;23.57;;
12171;SDS011;6149;52.418;13.668;2022-08-19T11:29:11;25.77;;;23.57;;
12171;SDS011;6149;52.418;13.668;2022-08-19T11:31:40;25.57;;;23.23;;
12171;SDS011;6149;52.418;13.668;2022-08-19T11:34:10;24.90;;;22.77;;
12171;SDS011;6149;52.418;13.668;2022-08-19T11:36:42;24.80;;;22.70;;
12171;SDS011;6149;52.418;13.668;2022-08-19T11:39:12;24.43;;;22.43;;
12171;SDS011;6149;52.418;13.668;2022-08-19T11:41:40;22.60;;;20.70;;
12171;SDS011;6149;52.418;13.668;2022-08-19T11:44:09;24.53;;;22.37;;
12171;SDS011;6149;52.418;13.668;2022-08-19T11:46:36;24.40;;;22.30;;
12171;SDS011;6149;52.418;13.668;2022-08-19T11:49:04;24.43;;;22.37;;
12171;SDS011;6149;52.418;13.668;2022-08-19T11:51:34;23.40;;;21.47;;
12171;SDS011;6149;52.418;13.668;2022-08-19T11:54:03;22.77;;;20.83;;
12171;SDS011;6149;52.418;13.668;2022-08-19T11:56:31;22.87;;;20.87;;
12171;SDS011;6149;52.418;13.668;2022-08-19T11:59:00;23.00;;;21.00;;
12171;SDS011;6149;52.418;13.668;2022-08-19T12:01:27;24.47;;;22.33;;
12171;SDS011;6149;52.418;13.668;2022-08-19T12:03:55;22.73;;;20.70;;
12171;SDS011;6149;52.418;13.668;2022-08-19T12:06:23;21.93;;;20.03;;
12171;SDS011;6149;52.418;13.668;2022-08-19T12:08:53;23.57;;;21.67;;
12171;SDS011;6149;52.418;13.668;2022-08-19T12:11:21;22.03;;;20.13;;
12171;SDS011;6149;52.418;13.668;2022-08-19T12:13:49;24.43;;;22.30;;
12171;SDS011;6149;52.418;13.668;2022-08-19T12:16:18;23.27;;;21.27;;
12171;SDS011;6149;52.418;13.668;2022-08-19T12:18:47;21.77;;;19.97;;
12171;SDS011;6149;52.418;13.668;2022-08-19T12:21:16;23.40;;;21.50;;
12171;SDS011;6149;52.418;13.668;2022-08-19T12:23:47;22.77;;;20.97;;
12171;SDS011;6149;52.418;13.668;2022-08-19T12:26:16;21.83;;;19.93;;
12171;SDS011;6149;52.418;13.668;2022-08-19T12:28:43;23.27;;;21.27;;
12171;SDS011;6149;52.418;13.668;2022-08-19T12:31:13;23.00;;;20.93;;
12171;SDS011;6149;52.418;13.668;2022-08-19T12:33:42;21.27;;;19.57;;
12171;SDS011;6149;52.418;13.668;2022-08-19T12:36:09;22.50;;;20.60;;
12171;SDS011;6149;52.418;13.668;2022-08-19T12:38:40;22.37;;;20.37;;
12171;SDS011;6149;52.418;13.668;2022-08-19T12:41:09;23.23;;;21.30;;
12171;SDS011;6149;52.418;13.668;2022-08-19T12:43:38;22.90;;;21.10;;
12171;SDS011;6149;52.418;13.668;2022-08-19T12:46:06;21.00;;;19.20;;
12171;SDS011;6149;52.418;13.668;2022-08-19T12:48:33;22.63;;;20.53;;
12171;SDS011;6149;52.418;13.668;2022-08-19T12:51:07;21.27;;;19.43;;
12171;SDS011;6149;52.418;13.668;2022-08-19T12:53:37;20.50;;;18.80;;
12171;SDS011;6149;52.418;13.668;2022-08-19T12:56:04;19.83;;;18.23;;
12171;SDS011;6149;52.418;13.668;2022-08-19T12:58:31;19.87;;;18.13;;
12171;SDS011;6149;52.418;13.668;2022-08-19T13:00:59;19.17;;;17.53;;
12171;SDS011;6149;52.418;13.668;2022-08-19T13:03:32;19.30;;;17.57;;
12171;SDS011;6149;52.418;13.668;2022-08-19T13:05:59;19.43;;;17.63;;
12171;SDS011;6149;52.418;13.668;2022-08-19T13:08:27;19.03;;;17.23;;
12171;SDS011;6149;52.418;13.668;2022-08-19T13:10:53;18.67;;;16.97;;
12171;SDS011;6149;52.418;13.668;2022-08-19T13:13:20;18.70;;;17.20;;
12171;SDS011;6149;52.418;13.668;2022-08-19T13:15:47;18.53;;;17.03;;
12171;SDS011;6149;52.418;13.668;2022-08-19T13:18:14;18.97;;;17.27;;
12171;SDS011;6149;52.418;13.668;2022-08-19T13:20:41;17.33;;;15.83;;
12171;SDS011;6149;52.418;13.668;2022-08-19T13:23:08;17.27;;;15.47;;
12171;SDS011;6149;52.418;13.668;2022-08-19T13:25:36;17.20;;;15.77;;
12171;SDS011;6149;52.418;13.668;2022-08-19T13:28:03;18.40;;;16.87;;
12171;SDS011;6149;52.418;13.668;2022-08-19T13:30:31;18.83;;;17.23;;
12171;SDS011;6149;52.418;13.668;2022-08-19T13:33:15;16.60;;;15.30;;
12171;SDS011;6149;52.418;13.668;2022-08-19T13:35:44;17.43;;;16.00;;
12171;SDS011;6149;52.418;13.668;2022-08-19T13:38:14;16.30;;;14.90;;
12171;SDS011;6149;52.418;13.668;2022-08-19T13:40:45;16.10;;;14.80;;
12171;SDS011;6149;52.418;13.668;2022-08-19T13:43:14;18.13;;;16.23;;
12171;SDS011;6149;52.418;13.668;2022-08-19T13:45:42;16.33;;;15.13;;
12171;SDS011;6149;52.418;13.668;2022-08-19T13:48:09;16.27;;;14.83;;
12171;SDS011;6149;52.418;13.668;2022-08-19T13:50:37;15.67;;;14.37;;
12171;SDS011;6149;52.418;13.668;2022-08-19T13:53:08;15.07;;;13.77;;
12171;SDS011;6149;52.418;13.668;2022-08-19T13:55:35;16.20;;;14.60;;
12171;SDS011;6149;52.418;13.668;2022-08-19T13:58:04;16.00;;;14.53;;
12171;SDS011;6149;52.418;13.668;2022-08-19T14:00:33;16.17;;;14.63;;
12171;SDS011;6149;52.418;13.668;2022-08-19T14:03:03;15.37;;;14.07;;
12171;SDS011;6149;52.418;13.668;2022-08-19T14:05:30;15.73;;;14.50;;
12171;SDS011;6149;52.418;13.668;2022-08-19T14:07:58;16.20;;;14.87;;
12171;SDS011;6149;52.418;13.668;2022-08-19T14:10:25;16.80;;;15.40;;
12171;SDS011;6149;52.418;13.668;2022-08-19T14:12:56;17.23;;;15.67;;
12171;SDS011;6149;52.418;13.668;2022-08-19T14:15:26;16.60;;;15.17;;
12171;SDS011;6149;52.418;13.668;2022-08-19T14:17:54;15.70;;;14.33;;
12171;SDS011;6149;52.418;13.668;2022-08-19T14:20:22;17.70;;;16.10;;
12171;SDS011;6149;52.418;13.668;2022-08-19T14:22:49;17.80;;;16.20;;
12171;SDS011;6149;52.418;13.668;2022-08-19T14:25:16;16.10;;;14.60;;
12171;SDS011;6149;52.418;13.668;2022-08-19T14:27:46;17.27;;;15.67;;
12171;SDS011;6149;52.418;13.668;2022-08-19T14:30:16;18.50;;;16.73;;
12171;SDS011;6149;52.418;13.668;2022-08-19T14:32:47;16.73;;;15.33;;